Time;durP1;ratioP1;P1;durP2;ratioP2;P2;SDS_P1;SDS_P2;PMS_P1;PMS_P2;Temp;Humidity;BMP_temperature;BMP_pressure;BME280_temperature;BME280_humidity;BME280_pressure;Samples;Min_cycle;Max_cycle;Signal;HPM_P1;HPM_P2
2023/01/06 00:01:21;;;;;;;7.47;3.70;;;;;;;13.17;44.47;101523.31;5050933;28;20415;-74
2023/01/06 00:03:51;;;;;;;8.17;3.40;;;;;;;13.28;44.07;101532.81;5051120;28;20373;-76
2023/01/06 00:06:17;;;;;;;7.85;3.40;;;;;;;13.23;44.15;101532.47;5050583;28;20865;-74
2023/01/06 00:08:43;;;;;;;5.18;2.72;;;;;;;12.93;44.48;101536.66;5051190;28;20380;-74
2023/01/06 00:11:11;;;;;;;10.57;4.05;;;;;;;12.78;44.74;101541.75;5050931;28;20422;-75
2023/01/06 00:13:37;;;;;;;8.75;2.78;;;;;;;12.82;44.40;101551.94;5050847;28;20373;-74
2023/01/06 00:16:05;;;;;;;10.20;2.93;;;;;;;12.83;44.17;101550.09;5049987;28;20753;-74
2023/01/06 00:18:30;;;;;;;7.43;2.70;;;;;;;12.78;44.32;101565.72;5050204;28;20443;-74
2023/01/06 00:20:59;;;;;;;9.90;2.30;;;;;;;12.60;44.54;101568.50;5049923;28;20423;-75
2023/01/06 00:23:24;;;;;;;8.07;2.67;;;;;;;12.63;44.76;101576.16;5050569;28;20711;-74
2023/01/06 00:25:50;;;;;;;6.82;2.47;;;;;;;12.67;44.76;101589.97;5050278;28;20396;-75
2023/01/06 00:28:16;;;;;;;6.63;2.40;;;;;;;12.79;44.30;101580.69;5050045;28;20921;-75
2023/01/06 00:30:42;;;;;;;9.82;2.92;;;;;;;12.89;44.33;101577.88;5050178;28;20471;-74
2023/01/06 00:33:07;;;;;;;7.25;2.55;;;;;;;12.68;44.94;101587.16;5049926;28;21051;-75
2023/01/06 00:35:33;;;;;;;5.93;2.53;;;;;;;12.76;44.88;101578.34;5049689;28;20381;-75
2023/01/06 00:37:58;;;;;;;6.10;2.00;;;;;;;12.68;45.08;101579.16;5049214;28;20402;-75
2023/01/06 00:40:24;;;;;;;7.57;2.87;;;;;;;12.55;45.68;101570.81;5049925;28;20389;-75
2023/01/06 00:42:49;;;;;;;7.10;2.33;;;;;;;12.73;45.45;101573.34;5050116;28;20498;-74
2023/01/06 00:45:14;;;;;;;9.53;2.60;;;;;;;12.65;45.39;101576.00;5049784;28;20702;-75
2023/01/06 00:47:40;;;;;;;8.07;2.50;;;;;;;12.81;45.42;101562.72;5050251;28;20392;-75
2023/01/06 00:50:06;;;;;;;8.10;2.27;;;;;;;12.81;45.45;101581.34;5050022;28;20380;-75
2023/01/06 00:52:33;;;;;;;7.53;2.60;;;;;;;12.90;45.07;101569.72;5050283;28;20408;-75
2023/01/06 00:54:58;;;;;;;7.00;2.40;;;;;;;12.97;44.82;101578.72;5050511;28;20376;-75
2023/01/06 00:57:24;;;;;;;6.73;2.73;;;;;;;13.02;45.00;101578.25;5049905;28;20446;-75
2023/01/06 00:59:49;;;;;;;9.57;3.30;;;;;;;13.02;44.97;101564.94;5049778;28;20419;-75
2023/01/06 01:02:15;;;;;;;10.63;3.37;;;;;;;13.04;44.72;101567.44;5051745;28;20379;-75
2023/01/06 01:04:40;;;;;;;9.05;3.15;;;;;;;13.09;44.75;101573.91;5054119;28;20399;-75
2023/01/06 01:07:06;;;;;;;8.20;2.80;;;;;;;12.97;44.96;101575.22;5054108;28;20379;-75
2023/01/06 01:09:31;;;;;;;9.60;3.05;;;;;;;12.92;45.21;101566.91;5053356;28;20864;-75
2023/01/06 01:12:11;;;;;;;7.22;2.70;;;;;;;12.99;45.02;101559.94;5053599;28;20434;-75
2023/01/06 01:14:46;;;;;;;8.07;3.00;;;;;;;13.16;44.92;101566.06;5054220;28;20360;-75
2023/01/06 01:17:14;;;;;;;9.75;3.35;;;;;;;13.18;44.84;101561.41;5054194;28;20887;-75
2023/01/06 01:19:40;;;;;;;8.63;2.85;;;;;;;13.16;45.02;101563.41;5054071;28;20396;-75
2023/01/06 01:22:06;;;;;;;7.15;2.75;;;;;;;13.14;44.92;101563.59;5053045;28;20737;-74
2023/01/06 01:24:31;;;;;;;8.43;3.50;;;;;;;13.04;45.11;101551.47;5053663;28;20758;-75
2023/01/06 01:26:58;;;;;;;6.93;3.17;;;;;;;13.09;44.89;101560.59;5053682;28;20383;-75
2023/01/06 01:29:23;;;;;;;14.45;6.75;;;;;;;13.14;44.69;101570.75;5053641;28;20380;-75
2023/01/06 01:31:49;;;;;;;8.38;3.53;;;;;;;13.10;44.95;101562.25;5053009;28;20416;-75
2023/01/06 01:34:16;;;;;;;8.82;3.38;;;;;;;13.01;45.28;101553.44;5053810;28;20387;-75
2023/01/06 01:36:43;;;;;;;10.70;3.92;;;;;;;13.11;45.14;101563.09;5053581;28;20464;-74
2023/01/06 01:39:10;;;;;;;11.70;4.20;;;;;;;13.10;45.44;101562.25;5053726;28;20404;-74
2023/01/06 01:41:36;;;;;;;9.32;4.18;;;;;;;13.07;45.56;101567.94;5053280;28;20377;-75
2023/01/06 01:44:39;;;;;;;9.45;4.05;;;;;;;13.10;45.58;101570.25;5053256;28;20451;-75
2023/01/06 01:47:05;;;;;;;8.35;3.40;;;;;;;13.06;45.73;101576.91;5052736;28;20775;-75
2023/01/06 01:49:35;;;;;;;10.50;3.90;;;;;;;13.12;45.54;101575.41;5068525;28;20448;-75
2023/01/06 01:52:01;;;;;;;7.13;3.80;;;;;;;13.07;45.93;101572.41;5052395;28;20384;-75
2023/01/06 01:54:29;;;;;;;9.17;3.60;;;;;;;13.13;45.82;101569.09;5068957;28;20441;-75
2023/01/06 01:56:59;;;;;;;8.15;3.63;;;;;;;13.09;45.78;101567.75;5053057;28;20369;-75
2023/01/06 01:59:29;;;;;;;9.93;4.18;;;;;;;13.08;46.29;101572.25;5053250;28;20397;-75
2023/01/06 02:01:55;;;;;;;9.60;4.00;;;;;;;13.07;45.54;101575.91;5053307;28;20373;-75
2023/01/06 02:04:23;;;;;;;9.13;3.47;;;;;;;13.07;45.89;101583.03;5053225;28;20369;-75
2023/01/06 02:06:49;;;;;;;7.75;3.65;;;;;;;13.08;46.10;101576.75;5052975;28;20770;-75
2023/01/06 02:09:17;;;;;;;8.90;3.75;;;;;;;13.16;45.86;101566.94;5053036;28;20381;-75
2023/01/06 02:11:46;;;;;;;9.30;3.65;;;;;;;13.08;45.74;101558.94;5052977;28;20376;-75
2023/01/06 02:14:16;;;;;;;10.27;4.25;;;;;;;13.06;45.73;101558.28;5052061;28;20377;-75
2023/01/06 02:16:56;;;;;;;8.52;3.67;;;;;;;13.08;46.06;101563.44;5052629;28;20400;-75
2023/01/06 02:19:22;;;;;;;11.13;4.37;;;;;;;13.15;45.90;101564.44;5051523;28;20400;-75
2023/01/06 02:22:15;;;;;;;8.57;4.33;;;;;;;13.02;45.89;101559.59;5052497;28;20445;-74
2023/01/06 02:24:49;;;;;;;8.70;4.15;;;;;;;12.98;45.82;101561.75;5032398;28;20391;-74
2023/01/06 02:27:27;;;;;;;9.65;4.13;;;;;;;12.84;46.03;101556.22;5032488;28;20751;-75
2023/01/06 02:30:16;;;;;;;7.40;3.10;;;;;;;12.70;46.43;101549.75;5032828;28;20653;-75
2023/01/06 02:33:17;;;;;;;8.45;3.67;;;;;;;12.61;46.48;101557.69;5035353;28;20386;-75
2023/01/06 02:36:01;;;;;;;9.83;4.00;;;;;;;12.70;46.43;101542.59;5041316;28;20365;-75
2023/01/06 02:38:44;;;;;;;11.93;3.78;;;;;;;12.74;46.41;101541.25;5051653;28;20487;-75
2023/01/06 02:41:30;;;;;;;8.48;4.07;;;;;;;12.76;46.60;101541.09;5051742;28;20383;-74
2023/01/06 02:46:57;;;;;;;8.40;3.50;;;;;;;12.53;46.82;101532.91;5052100;28;20384;-74
2023/01/06 02:49:35;;;;;;;10.80;4.20;;;;;;;12.54;46.85;101538.06;5052002;28;20463;-73
2023/01/06 02:52:23;;;;;;;7.65;3.53;;;;;;;12.52;46.85;101540.06;5052240;28;20388;-75
2023/01/06 02:54:59;;;;;;;10.77;3.75;;;;;;;12.57;46.54;101540.41;5051373;28;20377;-74
2023/01/06 02:57:48;;;;;;;8.90;3.57;;;;;;;12.58;46.66;101539.41;5051621;28;20489;-75
2023/01/06 03:00:23;;;;;;;12.15;4.82;;;;;;;12.51;46.80;101551.69;5011679;28;20459;-75
2023/01/06 03:03:04;;;;;;;9.03;3.47;;;;;;;12.32;47.14;101551.97;5047857;28;20392;-74
2023/01/06 03:05:32;;;;;;;7.55;2.92;;;;;;;12.26;47.00;101555.25;5041977;28;20391;-75
2023/01/06 03:08:01;;;;;;;24.83;10.27;;;;;;;12.22;47.19;101566.19;5045136;28;20474;-74
2023/01/06 03:10:29;;;;;;;28.70;13.20;;;;;;;12.35;47.20;101559.59;5048479;28;20410;-75
2023/01/06 03:13:01;;;;;;;19.25;9.98;;;;;;;12.39;47.09;101545.03;5036326;28;20476;-75
2023/01/06 03:15:27;;;;;;;8.57;3.72;;;;;;;12.53;46.59;101559.50;5046667;28;20418;-74
2023/01/06 03:17:53;;;;;;;8.50;3.72;;;;;;;12.45;46.61;101565.63;5044494;28;20411;-75
2023/01/06 03:20:19;;;;;;;10.20;3.85;;;;;;;12.34;46.88;101565.94;5050095;28;20822;-74
2023/01/06 03:22:44;;;;;;;7.70;3.80;;;;;;;12.23;47.33;101562.56;5046809;28;20791;-75
2023/01/06 03:25:11;;;;;;;9.63;3.47;;;;;;;12.13;47.25;101553.03;5031251;28;20410;-75
2023/01/06 03:27:36;;;;;;;8.27;3.33;;;;;;;12.12;47.00;101565.50;5031685;28;20755;-74
2023/01/06 03:30:08;;;;;;;9.43;3.23;;;;;;;12.03;47.13;101561.97;5041769;28;20945;-74
2023/01/06 03:32:43;;;;;;;7.55;2.90;;;;;;;11.76;47.83;101572.75;5032487;28;20378;-75
2023/01/06 03:35:30;;;;;;;6.85;2.67;;;;;;;11.66;48.06;101567.53;5047320;28;20902;-74
2023/01/06 03:38:12;;;;;;;8.10;2.87;;;;;;;11.75;47.58;101576.41;5031212;28;20946;-74
2023/01/06 03:41:08;;;;;;;8.05;2.70;;;;;;;11.80;47.48;101582.06;5037299;28;20388;-74
2023/01/06 03:44:04;;;;;;;8.68;2.67;;;;;;;11.58;47.50;101581.59;5046798;28;20382;-74
2023/01/06 03:46:47;;;;;;;6.45;2.42;;;;;;;11.61;47.47;101581.31;5031156;28;20473;-74
2023/01/06 03:49:28;;;;;;;7.38;2.53;;;;;;;11.65;47.20;101589.78;5038230;28;20385;-74
2023/01/06 03:52:06;;;;;;;7.50;2.58;;;;;;;11.68;46.97;101589.47;5038275;28;20409;-74
2023/01/06 03:54:55;;;;;;;9.38;3.03;;;;;;;11.74;46.91;101593.31;5031201;28;20503;-75
2023/01/06 03:57:27;;;;;;;7.45;2.50;;;;;;;11.72;46.82;101580.22;5039134;28;20393;-74
2023/01/06 04:00:05;;;;;;;6.72;2.38;;;;;;;11.72;46.77;101584.66;5050932;28;20458;-74
2023/01/06 04:02:32;;;;;;;6.20;1.98;;;;;;;11.59;47.06;101582.44;5047730;28;20385;-75
2023/01/06 04:05:13;;;;;;;7.15;2.28;;;;;;;11.58;46.90;101578.94;5031185;28;20696;-75
2023/01/06 04:07:40;;;;;;;7.43;2.40;;;;;;;11.44;47.29;101576.84;5030583;28;20866;-75
2023/01/06 04:10:07;;;;;;;8.15;2.45;;;;;;;11.50;47.10;101578.88;5030940;28;20421;-75
2023/01/06 04:12:38;;;;;;;8.13;2.50;;;;;;;11.52;47.01;101560.97;5031060;28;20715;-75
2023/01/06 04:15:13;;;;;;;7.90;2.33;;;;;;;11.55;46.88;101567.81;5031941;28;20631;-75
2023/01/06 04:17:40;;;;;;;8.93;2.58;;;;;;;11.41;47.51;101569.19;5040398;28;20420;-75
2023/01/06 04:20:08;;;;;;;8.77;2.50;;;;;;;11.54;47.43;101566.13;5036451;28;20476;-74
2023/01/06 04:22:34;;;;;;;11.55;3.00;;;;;;;11.58;47.41;101557.72;5045530;28;20796;-75
2023/01/06 04:24:59;;;;;;;7.85;3.22;;;;;;;11.51;47.37;101558.50;5035012;28;20389;-75
2023/01/06 04:27:25;;;;;;;6.43;2.53;;;;;;;11.48;47.33;101554.31;5046041;28;20847;-75
2023/01/06 04:29:50;;;;;;;11.37;8.00;;;;;;;11.50;47.52;101552.31;5042315;28;20435;-75
2023/01/06 04:32:16;;;;;;;5.90;2.28;;;;;;;11.55;47.29;101550.03;5037513;28;20457;-75
2023/01/06 04:34:41;;;;;;;8.20;2.40;;;;;;;11.51;47.60;101556.66;5049549;28;20397;-75
2023/01/06 04:37:07;;;;;;;7.83;3.07;;;;;;;11.41;47.52;101556.75;5043357;28;20394;-75
2023/01/06 04:39:32;;;;;;;8.73;3.43;;;;;;;11.59;47.16;101561.19;5037413;28;20449;-75
2023/01/06 04:41:57;;;;;;;7.83;3.00;;;;;;;11.51;47.36;101561.16;5037806;28;20739;-75
2023/01/06 04:44:24;;;;;;;10.90;2.90;;;;;;;11.43;47.52;101567.22;5046451;28;20752;-75
2023/01/06 04:46:49;;;;;;;8.50;2.80;;;;;;;11.51;47.67;101577.06;5044352;28;20433;-76
2023/01/06 04:49:15;;;;;;;7.17;2.80;;;;;;;11.61;47.11;101580.44;5042845;28;20425;-76
2023/01/06 04:51:40;;;;;;;9.03;3.10;;;;;;;11.74;47.03;101577.38;5040252;28;20403;-75
2023/01/06 04:54:06;;;;;;;7.40;2.53;;;;;;;11.62;47.19;101592.75;5049351;28;20539;-76
2023/01/06 04:56:31;;;;;;;7.90;2.83;;;;;;;11.58;47.41;101604.69;5048207;28;20434;-76
2023/01/06 04:58:57;;;;;;;8.57;2.90;;;;;;;11.62;47.23;101612.16;5048787;28;20428;-75
2023/01/06 05:01:25;;;;;;;10.13;3.17;;;;;;;11.72;46.72;101622.72;5045333;28;20385;-75
2023/01/06 05:03:50;;;;;;;8.13;2.80;;;;;;;11.73;46.61;101634.16;5045420;28;20892;-75
2023/01/06 05:06:17;;;;;;;10.80;3.40;;;;;;;11.71;46.61;101634.31;5048698;28;20384;-75
2023/01/06 05:08:43;;;;;;;11.20;3.55;;;;;;;11.57;46.92;101635.69;5048288;28;20461;-75
2023/01/06 05:11:13;;;;;;;12.40;3.37;;;;;;;11.66;46.78;101648.03;5048183;28;20446;-75
2023/01/06 05:13:39;;;;;;;11.57;4.22;;;;;;;11.74;46.64;101638.47;5046991;28;20404;-74
2023/01/06 05:16:09;;;;;;;10.82;3.63;;;;;;;11.76;46.36;101650.63;5048819;28;20420;-75
2023/01/06 05:18:35;;;;;;;8.23;3.27;;;;;;;11.79;46.38;101647.66;5047804;28;20547;-74
2023/01/06 05:21:00;;;;;;;14.10;4.13;;;;;;;11.90;46.49;101651.03;5051111;28;20471;-75
2023/01/06 05:23:26;;;;;;;10.87;3.30;;;;;;;11.78;46.49;101650.47;5051844;28;20491;-76
2023/01/06 05:25:52;;;;;;;8.90;3.05;;;;;;;11.77;46.67;101638.16;5047569;28;20388;-73
2023/01/06 05:28:18;;;;;;;7.18;3.33;;;;;;;11.74;46.91;101651.75;5050823;28;20384;-74
2023/01/06 05:30:44;;;;;;;10.23;3.20;;;;;;;11.50;47.33;101655.88;5054409;28;20396;-75
2023/01/06 05:33:10;;;;;;;10.75;4.43;;;;;;;11.42;47.66;101651.34;5052060;28;20387;-75
2023/01/06 05:35:35;;;;;;;8.55;3.60;;;;;;;11.40;47.67;101650.66;5049635;28;20382;-74
2023/01/06 05:38:01;;;;;;;8.95;2.75;;;;;;;11.52;47.39;101655.72;5054160;28;20446;-74
2023/01/06 05:40:27;;;;;;;15.57;8.00;;;;;;;11.44;47.77;101667.13;5052724;28;20454;-74
2023/01/06 05:42:56;;;;;;;8.57;3.10;;;;;;;11.31;47.65;101667.50;5050444;28;20405;-74
2023/01/06 05:45:22;;;;;;;8.20;2.65;;;;;;;11.37;47.61;101676.69;5049998;28;20511;-74
2023/01/06 05:47:48;;;;;;;8.52;2.60;;;;;;;11.36;47.56;101665.22;5049759;28;20384;-74
2023/01/06 05:50:13;;;;;;;8.15;2.55;;;;;;;11.40;47.60;101681.69;5052273;28;20390;-74
2023/01/06 05:52:39;;;;;;;9.00;2.87;;;;;;;11.39;47.73;101686.16;5050065;28;20412;-75
2023/01/06 05:55:05;;;;;;;8.40;2.60;;;;;;;11.39;47.34;101691.44;5049755;28;20896;-75
2023/01/06 05:57:35;;;;;;;8.13;2.78;;;;;;;11.39;47.52;101704.72;5052220;28;20384;-75
2023/01/06 06:00:02;;;;;;;10.32;2.72;;;;;;;11.29;47.33;101699.50;5044466;28;20404;-75
2023/01/06 06:02:28;;;;;;;10.90;2.72;;;;;;;11.24;47.75;101707.06;5050772;28;20388;-74
2023/01/06 06:04:54;;;;;;;11.93;3.17;;;;;;;11.22;47.67;101709.03;5052069;28;20381;-74
2023/01/06 06:07:19;;;;;;;7.30;2.20;;;;;;;11.20;47.66;101713.69;5052226;28;20369;-75
2023/01/06 06:09:44;;;;;;;10.27;3.10;;;;;;;11.30;47.67;101713.59;5051122;28;20409;-74
2023/01/06 06:12:11;;;;;;;9.23;2.60;;;;;;;11.21;47.52;101719.81;5052419;28;20384;-75
2023/01/06 06:14:37;;;;;;;9.05;3.03;;;;;;;11.16;47.53;101703.50;5051538;28;20395;-74
2023/01/06 06:17:02;;;;;;;9.87;3.47;;;;;;;11.19;47.98;101711.16;5051220;28;20369;-74
2023/01/06 06:19:28;;;;;;;7.73;3.07;;;;;;;11.13;47.80;101722.34;5050162;28;20400;-74
2023/01/06 06:21:53;;;;;;;8.83;3.30;;;;;;;10.98;47.87;101722.03;5049762;28;20373;-74
2023/01/06 06:24:19;;;;;;;4.55;1.85;;;;;;;11.06;47.69;101711.53;5050984;28;20364;-74
2023/01/06 06:26:45;;;;;;;7.88;2.28;;;;;;;11.20;47.25;101711.03;5052610;28;20447;-73
2023/01/06 06:29:11;;;;;;;5.93;2.00;;;;;;;11.22;47.24;101716.19;5052005;28;20452;-74
2023/01/06 06:31:36;;;;;;;6.30;1.93;;;;;;;11.13;47.28;101712.59;5052324;28;20373;-74
2023/01/06 06:34:02;;;;;;;6.80;2.00;;;;;;;11.14;47.54;101724.88;5051543;28;20373;-75
2023/01/06 06:36:29;;;;;;;11.32;4.03;;;;;;;11.13;47.55;101725.88;5052243;28;20383;-75
2023/01/06 06:38:55;;;;;;;6.80;2.42;;;;;;;11.22;47.29;101727.63;5052352;28;20408;-75
2023/01/06 06:41:22;;;;;;;11.43;4.78;;;;;;;11.31;47.37;101730.34;5051841;28;20392;-76
2023/01/06 06:43:48;;;;;;;10.48;4.15;;;;;;;11.34;47.48;101720.28;5050901;28;20392;-74
2023/01/06 06:46:15;;;;;;;7.28;2.33;;;;;;;11.51;47.07;101736.38;5050995;28;20435;-75
2023/01/06 06:48:40;;;;;;;12.32;2.80;;;;;;;11.38;47.38;101729.63;5051717;28;20392;-76
2023/01/06 06:51:12;;;;;;;10.53;3.33;;;;;;;11.41;47.36;101729.31;5051959;28;20857;-76
2023/01/06 06:53:38;;;;;;;8.55;3.35;;;;;;;11.55;47.02;101741.22;5051164;28;20845;-76
2023/01/06 06:56:05;;;;;;;10.75;3.35;;;;;;;11.62;46.63;101744.13;5050631;28;20377;-74
2023/01/06 06:58:31;;;;;;;4.75;2.30;;;;;;;11.61;46.91;101753.91;5050264;28;20412;-74
2023/01/06 07:00:57;;;;;;;8.35;3.25;;;;;;;11.82;47.17;101763.41;5050309;28;20857;-74
2023/01/06 07:03:24;;;;;;;8.20;2.43;;;;;;;11.77;46.56;101777.13;5049811;28;20396;-76
2023/01/06 07:05:51;;;;;;;6.15;2.55;;;;;;;11.88;46.73;101769.91;5049685;28;20399;-76
2023/01/06 07:08:17;;;;;;;4.90;1.90;;;;;;;11.93;46.25;101767.69;5053664;28;20418;-74
2023/01/06 07:10:42;;;;;;;5.17;2.40;;;;;;;11.94;46.57;101766.66;5040731;28;20378;-74
2023/01/06 07:13:08;;;;;;;6.13;2.03;;;;;;;11.88;46.56;101772.56;5045258;28;20457;-74
2023/01/06 07:15:34;;;;;;;5.82;1.90;;;;;;;11.95;46.35;101776.31;5044100;28;20453;-74
2023/01/06 07:18:03;;;;;;;4.40;2.10;;;;;;;12.07;46.17;101790.22;5043419;28;20421;-74
2023/01/06 07:20:31;;;;;;;4.60;2.07;;;;;;;11.84;47.02;101786.16;5048545;28;20372;-74
2023/01/06 07:22:56;;;;;;;3.75;1.80;;;;;;;12.01;46.54;101795.16;5051483;28;20388;-75
2023/01/06 07:25:22;;;;;;;4.10;2.20;;;;;;;12.17;46.16;101789.16;5050956;28;20526;-75
2023/01/06 07:27:55;;;;;;;4.00;2.00;;;;;;;12.18;46.00;101790.81;5048999;28;20372;-76
2023/01/06 07:30:21;;;;;;;5.63;2.58;;;;;;;12.03;46.06;101768.44;5033402;28;20795;-76
2023/01/06 07:32:47;;;;;;;4.63;1.90;;;;;;;11.98;46.19;101787.47;5051169;28;20388;-78
2023/01/06 07:35:13;;;;;;;4.70;1.65;;;;;;;12.02;46.03;101790.66;5048491;28;20377;-76
2023/01/06 07:37:38;;;;;;;4.43;2.03;;;;;;;12.05;45.74;101788.53;5044047;28;20417;-75
2023/01/06 07:40:04;;;;;;;4.03;1.67;;;;;;;12.15;45.81;101788.44;5037155;28;20447;-75
2023/01/06 07:42:30;;;;;;;3.80;1.75;;;;;;;12.24;45.73;101792.88;5046047;28;20372;-75
2023/01/06 07:44:55;;;;;;;3.33;1.80;;;;;;;12.15;45.87;101807.06;5045825;28;20464;-75
2023/01/06 07:47:21;;;;;;;4.17;1.50;;;;;;;12.07;45.93;101807.00;5051255;28;20373;-74
2023/01/06 07:49:46;;;;;;;3.20;1.70;;;;;;;12.14;45.62;101805.41;5051381;28;20804;-76
2023/01/06 07:52:12;;;;;;;3.23;1.40;;;;;;;11.95;45.09;101790.44;5051823;28;20380;-74
2023/01/06 07:54:37;;;;;;;6.00;1.67;;;;;;;11.72;45.62;101818.41;5052168;28;20936;-75
2023/01/06 07:57:02;;;;;;;4.82;1.88;;;;;;;11.72;45.63;101792.72;5051582;28;20391;-76
2023/01/06 07:59:28;;;;;;;4.40;1.63;;;;;;;11.83;45.08;101784.50;5051719;28;20405;-75
2023/01/06 08:01:53;;;;;;;4.30;1.38;;;;;;;12.01;45.35;101799.63;5067615;28;20534;-75
2023/01/06 08:04:19;;;;;;;2.27;1.10;;;;;;;11.83;45.32;101779.19;5051837;28;20403;-76
2023/01/06 08:06:44;;;;;;;3.43;1.13;;;;;;;11.86;45.20;101793.97;5051979;28;20888;-76
2023/01/06 08:09:10;;;;;;;2.23;1.00;;;;;;;11.65;45.22;101779.19;5048324;28;20405;-74
2023/01/06 08:11:35;;;;;;;4.60;1.13;;;;;;;11.83;45.29;101791.66;5049642;28;20376;-75
2023/01/06 08:14:01;;;;;;;4.20;1.50;;;;;;;11.85;45.27;101797.63;5050667;28;20861;-74
2023/01/06 08:16:26;;;;;;;5.43;1.17;;;;;;;12.03;44.83;101810.97;5051198;28;20408;-75
2023/01/06 08:18:52;;;;;;;3.50;1.33;;;;;;;12.01;44.67;101799.63;5050658;28;20404;-74
2023/01/06 08:21:17;;;;;;;6.20;1.30;;;;;;;12.15;44.69;101800.91;5050837;28;20427;-75
2023/01/06 08:23:43;;;;;;;4.47;1.60;;;;;;;12.23;44.62;101799.16;5051037;28;20387;-74
2023/01/06 08:26:14;;;;;;;4.60;1.50;;;;;;;12.09;44.16;101810.34;5050042;28;20480;-75
2023/01/06 08:28:44;;;;;;;8.10;2.28;;;;;;;12.49;43.86;101808.16;5048125;28;20381;-75
2023/01/06 08:31:14;;;;;;;8.02;2.33;;;;;;;12.63;43.25;101824.38;5051147;28;20377;-75
2023/01/06 08:33:40;;;;;;;4.03;1.67;;;;;;;12.66;43.83;101825.03;5051176;28;20412;-76
2023/01/06 08:36:08;;;;;;;6.80;1.90;;;;;;;12.65;43.24;101823.38;5049857;28;20497;-75
2023/01/06 08:38:34;;;;;;;3.00;1.35;;;;;;;12.56;42.86;101804.69;5051474;28;20401;-74
2023/01/06 08:41:01;;;;;;;14.95;2.00;;;;;;;12.52;43.11;101816.66;5050048;28;20384;-74
2023/01/06 08:43:28;;;;;;;6.40;1.67;;;;;;;12.59;42.64;101809.72;5050455;28;20409;-74
2023/01/06 08:45:58;;;;;;;7.67;1.97;;;;;;;12.76;42.32;101807.16;5050936;28;20784;-75
2023/01/06 08:48:23;;;;;;;5.37;1.33;;;;;;;12.54;42.67;101822.66;5050611;28;20373;-75
2023/01/06 08:50:49;;;;;;;5.10;1.77;;;;;;;12.61;43.06;101814.88;5050265;28;20392;-74
2023/01/06 08:53:14;;;;;;;4.90;2.03;;;;;;;12.67;42.55;101800.94;5050032;28;20380;-75
2023/01/06 08:55:41;;;;;;;8.13;1.27;;;;;;;12.47;42.24;101812.78;5051070;28;20861;-75
2023/01/06 08:58:07;;;;;;;3.15;1.00;;;;;;;12.45;41.94;101815.59;5050946;28;20941;-75
2023/01/06 09:00:34;;;;;;;6.47;1.70;;;;;;;12.65;41.65;101807.44;5050938;28;20377;-75
2023/01/06 09:02:59;;;;;;;4.43;1.50;;;;;;;12.58;41.65;101816.00;5050992;28;20856;-75
2023/01/06 09:05:25;;;;;;;6.50;2.10;;;;;;;12.50;42.03;101812.50;5050277;28;20388;-76
2023/01/06 09:07:50;;;;;;;4.83;1.57;;;;;;;12.53;42.03;101821.00;5050582;28;20455;-75
2023/01/06 09:10:17;;;;;;;2.53;1.17;;;;;;;12.61;41.88;101823.69;5050373;28;20424;-76
2023/01/06 09:12:43;;;;;;;3.90;1.33;;;;;;;12.71;41.60;101812.09;5050305;28;20381;-74
2023/01/06 09:15:09;;;;;;;2.63;1.10;;;;;;;12.86;40.90;101810.53;5051079;28;21148;-75
2023/01/06 09:17:34;;;;;;;7.28;2.20;;;;;;;13.10;41.05;101815.16;5050749;28;20380;-76
2023/01/06 09:20:00;;;;;;;4.10;2.60;;;;;;;13.08;40.97;101805.66;5050964;28;20494;-76
2023/01/06 09:22:25;;;;;;;4.87;1.70;;;;;;;12.96;41.38;101811.28;5051041;28;20521;-75
2023/01/06 09:24:51;;;;;;;3.57;1.10;;;;;;;12.74;41.16;101796.66;5054663;28;20376;-75
2023/01/06 09:27:16;;;;;;;6.57;1.50;;;;;;;12.81;41.24;101816.31;5053932;28;20455;-75
2023/01/06 09:29:42;;;;;;;9.90;1.50;;;;;;;13.15;40.40;101818.16;5054284;28;20392;-75
2023/01/06 09:32:08;;;;;;;6.97;1.70;;;;;;;13.25;40.81;101815.38;5054561;28;20805;-76
2023/01/06 09:34:33;;;;;;;1.83;1.05;;;;;;;13.24;40.17;101807.56;5054716;28;20372;-75
2023/01/06 09:36:59;;;;;;;4.17;1.47;;;;;;;13.42;40.25;101818.16;5054358;28;20398;-75
2023/01/06 09:39:25;;;;;;;4.70;1.35;;;;;;;13.17;40.04;101824.16;5053005;28;20749;-75
2023/01/06 09:42:09;;;;;;;3.60;1.38;;;;;;;13.06;40.22;101816.47;5054046;28;20487;-77
2023/01/06 09:45:15;;;;;;;10.90;1.90;;;;;;;13.27;39.81;101812.53;5057387;28;20377;-76
2023/01/06 09:47:55;;;;;;;4.38;1.50;;;;;;;13.07;39.88;101803.97;5055082;28;20380;-77
2023/01/06 09:50:29;;;;;;;3.83;1.40;;;;;;;12.97;39.99;101810.25;5054277;28;20463;-74
2023/01/06 09:52:59;;;;;;;3.83;1.52;;;;;;;12.87;40.54;101793.56;5053959;28;20410;-75
2023/01/06 09:55:34;;;;;;;4.95;1.92;;;;;;;13.25;40.00;101785.25;5053641;28;20375;-74
2023/01/06 09:58:05;;;;;;;3.00;1.48;;;;;;;13.18;39.89;101782.38;5053305;28;20383;-75
2023/01/06 10:00:44;;;;;;;2.88;1.60;;;;;;;13.00;39.88;101778.00;5054163;28;20373;-75
2023/01/06 10:03:18;;;;;;;1.88;1.27;;;;;;;13.23;39.08;101771.28;5055362;28;20402;-76
2023/01/06 10:05:54;;;;;;;4.60;0.98;;;;;;;12.97;39.84;101754.38;5053993;28;20385;-75
2023/01/06 10:08:39;;;;;;;3.25;1.50;;;;;;;13.08;39.79;101758.56;5069779;28;20412;-76
2023/01/06 10:11:07;;;;;;;5.65;1.80;;;;;;;13.28;39.83;101739.66;5054876;28;20373;-75
2023/01/06 10:13:56;;;;;;;7.38;1.38;;;;;;;13.26;39.99;101733.69;5053932;28;20450;-76
2023/01/06 10:16:52;;;;;;;3.80;1.13;;;;;;;12.99;40.31;101730.25;5053009;28;20415;-74
2023/01/06 10:19:17;;;;;;;5.60;1.88;;;;;;;13.34;39.54;101723.06;5053457;28;20835;-75
2023/01/06 10:21:45;;;;;;;6.40;2.90;;;;;;;13.41;39.59;101717.91;5053132;28;20920;-76
2023/01/06 10:24:42;;;;;;;13.70;2.50;;;;;;;13.47;39.00;101744.75;5053030;28;20837;-74
2023/01/06 10:27:25;;;;;;;6.32;1.92;;;;;;;13.48;38.68;101740.25;5052983;28;20361;-77
2023/01/06 10:29:53;;;;;;;11.98;2.40;;;;;;;13.47;38.73;101742.09;5053015;28;20700;-74
2023/01/06 10:32:20;;;;;;;5.38;1.50;;;;;;;13.62;38.35;101746.75;5053683;28;20442;-78
2023/01/06 10:34:48;;;;;;;11.38;2.20;;;;;;;13.67;38.42;101757.78;5052912;28;20385;-74
2023/01/06 10:37:22;;;;;;;5.60;1.70;;;;;;;13.63;38.58;101759.06;5069296;28;20477;-75
2023/01/06 10:39:54;;;;;;;4.40;2.17;;;;;;;13.87;38.55;101761.78;5049322;28;20404;-77
2023/01/06 10:45:17;;;;;;;4.25;1.30;;;;;;;13.91;37.43;101787.09;5053474;28;20784;-75
2023/01/06 10:47:44;;;;;;;3.53;1.55;;;;;;;14.25;37.56;101785.25;5053218;28;20380;-76
2023/01/06 10:50:16;;;;;;;4.33;1.53;;;;;;;14.15;37.30;101788.09;5053076;28;20384;-75
2023/01/06 10:52:43;;;;;;;2.70;1.20;;;;;;;13.68;37.66;101792.22;5052616;28;20389;-77
2023/01/06 10:55:36;;;;;;;2.65;1.23;;;;;;;13.48;36.78;101780.19;5053002;28;20446;-76
2023/01/06 10:58:37;;;;;;;1.80;0.90;;;;;;;13.55;36.47;101779.38;5051585;28;20381;-77
2023/01/06 11:01:11;;;;;;;3.20;1.42;;;;;;;13.57;36.59;101769.38;5049452;28;20385;-75
2023/01/06 11:03:41;;;;;;;4.47;1.38;;;;;;;13.38;37.56;101743.88;5052482;28;20437;-74
2023/01/06 11:06:16;;;;;;;3.47;1.60;;;;;;;13.73;36.88;101738.44;5052503;28;20442;-76
2023/01/06 11:08:41;;;;;;;2.28;1.38;;;;;;;13.52;37.09;101729.09;5051668;28;20491;-75
2023/01/06 11:11:19;;;;;;;2.07;1.30;;;;;;;13.16;37.01;101699.19;5052938;28;20395;-77
2023/01/06 11:13:56;;;;;;;3.80;1.38;;;;;;;13.29;37.08;101696.06;5052340;28;20381;-75
2023/01/06 11:16:25;;;;;;;3.75;1.50;;;;;;;13.36;37.10;101697.94;5051851;28;20437;-75
2023/01/06 11:18:56;;;;;;;2.63;1.30;;;;;;;13.37;37.68;101688.94;5052142;28;20848;-75
2023/01/06 11:21:35;;;;;;;3.97;1.50;;;;;;;13.53;37.64;101692.63;5051996;28;20863;-77
2023/01/06 11:24:28;;;;;;;1.80;1.00;;;;;;;13.54;36.81;101697.81;5053013;28;20507;-77
2023/01/06 11:27:14;;;;;;;4.55;1.70;;;;;;;13.70;36.46;101693.47;5051849;28;20488;-74
2023/01/06 11:29:39;;;;;;;2.35;1.20;;;;;;;14.06;36.19;101709.97;5051377;28;20703;-75
2023/01/06 11:32:34;;;;;;;3.65;1.20;;;;;;;13.79;36.04;101721.78;5052005;28;21019;-75
2023/01/06 11:35:03;;;;;;;3.50;1.33;;;;;;;13.79;35.84;101721.78;5043047;28;20733;-74
2023/01/06 11:37:42;;;;;;;4.75;1.10;;;;;;;13.88;35.80;101730.59;5051526;28;20483;-74
2023/01/06 11:40:20;;;;;;;2.03;0.90;;;;;;;13.62;36.48;101752.09;5052272;28;20507;-77
2023/01/06 11:42:52;;;;;;;5.28;1.35;;;;;;;13.67;36.80;101760.44;5051618;28;20376;-76